createdAt,value
2018-07-17T00:01:46.369Z,60.77
2018-07-17T00:04:14.675Z,61.82
2018-07-17T00:06:42.809Z,62.21
2018-07-17T00:09:11.180Z,61.82
2018-07-17T00:11:39.410Z,60.85
2018-07-17T00:14:07.936Z,61.02
2018-07-17T00:16:36.225Z,61.57
2018-07-17T00:19:04.462Z,60.67
2018-07-17T00:21:32.670Z,59.83
2018-07-17T00:24:01.042Z,59.26
2018-07-17T00:26:29.253Z,58.94
2018-07-17T00:28:57.493Z,58.52
2018-07-17T00:31:25.770Z,58.39
2018-07-17T00:33:54.179Z,58.11
2018-07-17T00:36:22.422Z,58.58
2018-07-17T00:38:50.703Z,58.95
2018-07-17T00:41:19.080Z,58.25
2018-07-17T00:43:47.394Z,58.08
2018-07-17T00:46:15.837Z,58.03
2018-07-17T00:48:44.215Z,59.52
2018-07-17T00:51:12.522Z,59.10
2018-07-17T00:53:40.870Z,59.52
2018-07-17T00:56:09.137Z,59.25
2018-07-17T00:58:37.140Z,59.73
2018-07-17T01:01:04.921Z,60.52
2018-07-17T01:03:38.667Z,60.20
2018-07-17T01:06:12.498Z,60.39
2018-07-17T01:08:46.273Z,61.63
2018-07-17T01:11:20.020Z,61.91
2018-07-17T01:14:06.936Z,61.51
2018-07-17T01:16:35.129Z,60.71
2018-07-17T01:19:03.506Z,61.09
2018-07-17T01:21:31.840Z,60.65
2018-07-17T01:24:00.312Z,60.86
2018-07-17T01:26:28.802Z,61.77
2018-07-17T01:28:57.176Z,62.21
2018-07-17T01:31:25.654Z,62.01
2018-07-17T01:33:53.974Z,62.21
2018-07-17T01:36:22.202Z,61.77
2018-07-17T01:38:50.481Z,62.18
2018-07-17T01:41:18.800Z,62.02
2018-07-17T01:43:47.242Z,62.28
2018-07-17T01:46:15.492Z,62.44
2018-07-17T01:48:43.582Z,62.64
2018-07-17T01:51:11.899Z,63.10
2018-07-17T01:53:40.126Z,62.33
2018-07-17T01:56:08.205Z,61.88
2018-07-17T01:58:36.613Z,63.36
2018-07-17T02:01:04.754Z,63.06
2018-07-17T02:03:32.601Z,63.01
2018-07-17T02:06:00.892Z,61.60
2018-07-17T02:08:29.153Z,62.96
2018-07-17T02:10:57.243Z,63.57
2018-07-17T02:13:25.513Z,63.29
2018-07-17T02:15:53.882Z,63.13
2018-07-17T02:18:22.070Z,63.35
2018-07-17T02:20:50.332Z,62.60
2018-07-17T02:23:18.548Z,62.35
2018-07-17T02:25:46.781Z,63.64
2018-07-17T02:28:15.057Z,63.39
2018-07-17T02:30:43.478Z,64.20
2018-07-17T02:33:11.613Z,63.33
2018-07-17T02:35:39.769Z,63.24
2018-07-17T02:38:08.206Z,63.19
2018-07-17T02:40:36.328Z,63.44
2018-07-17T02:43:04.704Z,63.72
2018-07-17T02:45:33.020Z,63.40
2018-07-17T02:48:01.233Z,62.79
2018-07-17T02:50:29.537Z,63.03
2018-07-17T02:52:57.854Z,62.69
2018-07-17T02:55:26.302Z,63.01
2018-07-17T02:57:54.566Z,62.66
2018-07-17T03:00:22.870Z,62.44
2018-07-17T03:02:51.321Z,61.95
2018-07-17T03:05:19.490Z,61.96
2018-07-17T03:07:47.725Z,62.21
2018-07-17T03:10:16.253Z,61.71
2018-07-17T03:12:44.145Z,61.76
2018-07-17T03:15:12.550Z,61.17
2018-07-17T03:17:40.973Z,60.81
2018-07-17T03:20:09.149Z,61.36
2018-07-17T03:22:37.524Z,61.61
2018-07-17T03:25:05.986Z,62.66
2018-07-17T03:27:34.281Z,63.74
2018-07-17T03:30:02.725Z,62.94
2018-07-17T03:32:30.938Z,62.55
2018-07-17T03:34:59.213Z,61.60
2018-07-17T03:37:27.643Z,61.74
2018-07-17T03:39:55.857Z,61.56
2018-07-17T03:42:24.250Z,63.21
2018-07-17T03:44:52.576Z,63.66
2018-07-17T03:47:20.689Z,62.52
2018-07-17T03:49:49.064Z,63.70
2018-07-17T03:52:17.419Z,63.51
2018-07-17T03:54:45.820Z,64.28
2018-07-17T03:57:14.089Z,64.10
2018-07-17T03:59:42.373Z,63.84
2018-07-17T04:02:10.763Z,63.49
2018-07-17T04:04:39.062Z,63.43
2018-07-17T04:07:06.953Z,63.04
2018-07-17T04:09:35.179Z,62.92
2018-07-17T04:12:03.358Z,63.31
2018-07-17T04:14:31.301Z,63.49
2018-07-17T04:16:59.681Z,62.32
2018-07-17T04:19:27.997Z,62.23
2018-07-17T04:21:56.273Z,62.51
2018-07-17T04:24:24.573Z,62.37
2018-07-17T04:26:53.301Z,62.54
2018-07-17T04:29:21.434Z,63.58
2018-07-17T04:31:49.933Z,64.53
2018-07-17T04:34:18.236Z,63.73
2018-07-17T04:36:46.540Z,64.21
2018-07-17T04:39:14.791Z,63.94
2018-07-17T04:41:43.057Z,63.71
2018-07-17T04:44:11.586Z,62.90
2018-07-17T04:46:39.910Z,63.16
2018-07-17T04:49:08.302Z,63.27
2018-07-17T04:51:36.628Z,63.23
2018-07-17T04:54:05.054Z,63.04
2018-07-17T04:56:33.233Z,63.88
2018-07-17T04:59:01.744Z,64.49
2018-07-17T05:01:30.340Z,64.66
2018-07-17T05:03:58.670Z,64.80
2018-07-17T05:06:26.869Z,65.10
2018-07-17T05:08:55.109Z,63.88
2018-07-17T05:11:23.486Z,64.87
2018-07-17T05:13:51.801Z,65.07
2018-07-17T05:16:20.140Z,64.49
2018-07-17T05:18:48.518Z,64.36
2018-07-17T05:21:16.938Z,64.37
2018-07-17T05:23:45.066Z,63.90
2018-07-17T05:26:13.340Z,64.70
2018-07-17T05:28:41.652Z,64.69
2018-07-17T05:31:09.902Z,63.42
2018-07-17T05:33:38.265Z,63.41
2018-07-17T05:36:06.894Z,62.47
2018-07-17T05:38:34.725Z,61.56
2018-07-17T05:41:03.000Z,60.70
2018-07-17T05:43:31.276Z,59.86
2018-07-17T05:45:59.562Z,59.05
2018-07-17T05:48:27.957Z,58.97
2018-07-17T05:50:56.107Z,59.85
2018-07-17T05:53:24.390Z,59.76
2018-07-17T05:55:52.886Z,59.49
2018-07-17T05:58:21.161Z,58.26
2018-07-17T06:00:49.401Z,56.97
2018-07-17T06:03:17.793Z,56.76
2018-07-17T06:05:46.053Z,55.92
2018-07-17T06:08:14.229Z,55.18
2018-07-17T06:10:42.627Z,55.09
2018-07-17T06:13:10.881Z,54.71
2018-07-17T06:15:39.252Z,53.66
2018-07-17T06:18:07.540Z,53.28
2018-07-17T06:20:35.801Z,53.12
2018-07-17T06:23:04.213Z,51.76
2018-07-17T06:25:32.468Z,52.31
2018-07-17T06:28:00.744Z,52.74
2018-07-17T06:30:29.018Z,52.13
2018-07-17T06:32:57.389Z,51.75
2018-07-17T06:35:25.773Z,53.01
2018-07-17T06:37:54.037Z,52.47
2018-07-17T06:40:22.426Z,52.17
2018-07-17T06:42:50.825Z,51.17
2018-07-17T06:45:19.291Z,51.85
2018-07-17T06:47:47.570Z,51.92
2018-07-17T06:50:16.051Z,51.90
2018-07-17T06:52:44.189Z,50.15
2018-07-17T06:55:12.606Z,50.33
2018-07-17T06:57:40.974Z,50.87
2018-07-17T07:00:09.445Z,51.25
2018-07-17T07:02:37.618Z,50.24
2018-07-17T07:05:06.006Z,49.37
2018-07-17T07:07:34.282Z,50.31
2018-07-17T07:10:02.153Z,49.55
2018-07-17T07:12:30.617Z,49.56
2018-07-17T07:14:58.998Z,49.12
2018-07-17T07:17:27.187Z,49.75
2018-07-17T07:19:55.466Z,48.78
2018-07-17T07:22:23.937Z,49.02
2018-07-17T07:24:52.310Z,48.94
2018-07-17T07:27:20.794Z,48.43
2018-07-17T07:29:49.167Z,47.46
2018-07-17T07:32:17.453Z,47.49
2018-07-17T07:34:45.822Z,47.62
2018-07-17T07:37:14.140Z,46.66
2018-07-17T07:39:42.342Z,46.91
2018-07-17T07:42:10.745Z,47.53
2018-07-17T07:44:39.113Z,47.16
2018-07-17T07:47:07.621Z,47.23
2018-07-17T07:49:35.781Z,48.24
2018-07-17T07:52:04.158Z,48.86
2018-07-17T07:54:32.325Z,47.95
2018-07-17T07:57:00.507Z,48.43
2018-07-17T07:59:28.875Z,48.77
2018-07-17T08:01:57.038Z,48.09
2018-07-17T08:04:25.076Z,48.87
2018-07-17T08:06:53.403Z,47.31
2018-07-17T08:09:21.674Z,47.04
2018-07-17T08:11:49.777Z,46.76
2018-07-17T08:14:18.121Z,47.67
2018-07-17T08:16:46.609Z,47.57
2018-07-17T08:19:14.870Z,48.93
2018-07-17T08:21:43.367Z,45.99
2018-07-17T08:24:11.770Z,46.59
2018-07-17T08:26:40.223Z,45.62
2018-07-17T08:29:08.402Z,45.58
2018-07-17T08:31:36.887Z,45.92
2018-07-17T08:34:05.240Z,47.13
2018-07-17T08:36:33.664Z,46.49
2018-07-17T08:39:02.002Z,46.61
2018-07-17T08:41:30.390Z,45.85
2018-07-17T08:43:58.662Z,46.92
2018-07-17T08:46:27.132Z,46.21
2018-07-17T08:48:55.410Z,48.03
2018-07-17T08:51:23.697Z,46.68
2018-07-17T08:53:52.069Z,46.40
2018-07-17T08:56:20.448Z,46.16
2018-07-17T08:58:48.722Z,46.79
2018-07-17T09:01:17.246Z,47.19
2018-07-17T09:03:45.574Z,44.53
2018-07-17T09:06:13.745Z,48.19
2018-07-17T09:08:42.021Z,47.68
2018-07-17T09:11:10.300Z,43.63
2018-07-17T09:13:38.582Z,43.88
2018-07-17T09:16:07.052Z,46.79
2018-07-17T09:18:36.159Z,44.27
2018-07-17T09:21:04.459Z,43.04
2018-07-17T09:23:32.909Z,46.34
2018-07-17T09:26:01.069Z,46.91
2018-07-17T09:31:11.649Z,43.56
2018-07-17T09:33:39.989Z,45.63
2018-07-17T09:36:08.019Z,45.77
2018-07-17T09:38:36.278Z,44.50
2018-07-17T09:41:04.558Z,42.62
2018-07-17T09:43:32.937Z,46.12
2018-07-17T09:46:01.215Z,42.49
2018-07-17T09:48:29.490Z,43.40
2018-07-17T09:50:57.957Z,44.06
2018-07-17T09:53:26.151Z,41.79
2018-07-17T09:55:54.424Z,45.65
2018-07-17T09:58:22.701Z,45.71
2018-07-17T10:00:56.445Z,44.10
2018-07-17T10:03:24.668Z,43.37
2018-07-17T10:05:52.850Z,44.70
2018-07-17T10:08:21.222Z,42.06
2018-07-17T10:10:49.689Z,43.07
2018-07-17T10:13:18.087Z,45.67
2018-07-17T10:15:46.478Z,42.32
2018-07-17T10:18:14.837Z,44.09
2018-07-17T10:20:43.018Z,44.85
2018-07-17T10:23:11.391Z,42.07
2018-07-17T10:25:39.560Z,42.77
2018-07-17T10:28:07.838Z,43.05
2018-07-17T10:30:36.101Z,42.71
2018-07-17T10:33:04.489Z,44.50
2018-07-17T10:35:32.765Z,43.63
2018-07-17T10:38:01.038Z,42.71
2018-07-17T10:40:29.408Z,42.88
2018-07-17T10:42:57.566Z,43.56
2018-07-17T10:45:26.069Z,44.06
2018-07-17T10:47:54.555Z,44.94
2018-07-17T10:50:22.826Z,45.26
2018-07-17T10:52:51.088Z,45.87
2018-07-17T10:55:19.474Z,45.67
2018-07-17T10:57:47.878Z,45.24
2018-07-17T11:00:16.029Z,45.74
2018-07-17T11:02:44.401Z,51.21
2018-07-17T11:05:12.693Z,56.65
2018-07-17T11:07:41.066Z,60.02
2018-07-17T11:10:09.304Z,62.26
2018-07-17T11:12:37.605Z,64.69
2018-07-17T11:15:05.991Z,64.95
2018-07-17T11:17:34.369Z,65.02
2018-07-17T11:20:02.651Z,65.33
2018-07-17T11:22:30.793Z,64.48
2018-07-17T11:24:59.191Z,64.80
2018-07-17T11:27:27.370Z,64.15
2018-07-17T11:29:55.648Z,65.00
2018-07-17T11:32:24.021Z,67.56
2018-07-17T11:34:52.289Z,68.08
2018-07-17T11:37:20.675Z,69.38
2018-07-17T11:39:48.923Z,67.80
2018-07-17T11:42:17.476Z,68.80
2018-07-17T11:44:45.605Z,68.91
2018-07-17T11:47:13.882Z,71.49
2018-07-17T11:49:42.206Z,71.41
2018-07-17T11:52:10.079Z,74.58
2018-07-17T11:54:38.502Z,75.78
2018-07-17T11:57:06.886Z,76.95
2018-07-17T11:59:35.313Z,78.44
2018-07-17T12:02:03.891Z,77.47
2018-07-17T12:04:32.210Z,77.19
2018-07-17T12:07:00.486Z,78.22
2018-07-17T12:09:28.801Z,76.32
2018-07-17T12:11:57.137Z,76.34
2018-07-17T12:14:25.517Z,75.76
2018-07-17T12:16:53.789Z,76.67
2018-07-17T12:19:22.045Z,78.09
2018-07-17T12:21:50.450Z,76.42
2018-07-17T12:24:18.729Z,77.80
2018-07-17T12:26:47.106Z,75.37
2018-07-17T12:29:15.378Z,74.46
2018-07-17T12:31:43.849Z,73.71
2018-07-17T12:34:12.246Z,75.38
2018-07-17T12:36:40.503Z,74.68
2018-07-17T12:39:10.361Z,72.81
2018-07-17T12:41:38.699Z,72.90
2018-07-17T12:44:06.964Z,73.47
2018-07-17T12:46:35.023Z,72.28
2018-07-17T12:49:03.454Z,71.20
2018-07-17T12:51:31.905Z,73.30
2018-07-17T12:54:00.342Z,71.37
2018-07-17T12:56:28.766Z,71.04
2018-07-17T12:58:57.017Z,71.16
2018-07-17T13:01:25.036Z,72.54
2018-07-17T13:03:53.490Z,69.69
2018-07-17T13:06:21.766Z,69.44
2018-07-17T13:08:49.745Z,70.71
2018-07-17T13:11:18.248Z,68.67
2018-07-17T13:13:46.581Z,68.06
2018-07-17T13:16:14.618Z,66.60
2018-07-17T13:18:42.937Z,64.01
2018-07-17T13:21:11.313Z,63.15
2018-07-17T13:23:39.609Z,65.30
2018-07-17T13:26:07.973Z,64.65
2018-07-17T13:28:36.324Z,64.01
2018-07-17T13:31:04.722Z,64.52
2018-07-17T13:33:33.010Z,63.99
2018-07-17T13:36:01.274Z,66.69
2018-07-17T13:38:29.542Z,67.40
2018-07-17T13:40:57.820Z,68.71
2018-07-17T13:43:26.201Z,68.79
2018-07-17T13:45:54.581Z,68.38
2018-07-17T13:48:22.746Z,68.66
2018-07-17T13:50:51.035Z,68.52
2018-07-17T13:53:19.308Z,69.10
2018-07-17T13:55:47.462Z,69.18
2018-07-17T13:58:15.852Z,68.66
2018-07-17T14:00:44.127Z,70.21
2018-07-17T14:03:12.501Z,70.14
2018-07-17T14:05:40.787Z,69.91
2018-07-17T14:08:09.257Z,70.74
2018-07-17T14:10:37.656Z,70.82
2018-07-17T14:13:06.234Z,70.46
2018-07-17T14:15:34.503Z,70.87
2018-07-17T14:18:02.981Z,71.12
2018-07-17T14:20:31.365Z,70.68
2018-07-17T14:22:59.533Z,70.98
2018-07-17T14:25:28.006Z,71.54
2018-07-17T14:27:56.389Z,71.40
2018-07-17T14:30:24.760Z,71.51
2018-07-17T14:32:53.004Z,70.96
2018-07-17T14:35:21.421Z,71.08
2018-07-17T14:37:49.698Z,72.42
2018-07-17T14:40:18.081Z,71.76
2018-07-17T14:42:46.519Z,71.76
2018-07-17T14:45:14.830Z,71.78
2018-07-17T14:47:42.973Z,71.96
2018-07-17T14:50:11.381Z,72.22
2018-07-17T14:52:39.669Z,71.51
2018-07-17T14:55:09.216Z,71.97
2018-07-17T14:57:37.529Z,71.96
2018-07-17T15:00:06.311Z,73.43
2018-07-17T15:02:34.706Z,72.27
2018-07-17T15:05:03.177Z,72.72
2018-07-17T15:07:31.358Z,72.21
2018-07-17T15:09:59.830Z,71.12
2018-07-17T15:12:28.105Z,70.49
2018-07-17T15:14:56.492Z,70.27
2018-07-17T15:17:24.809Z,70.06
2018-07-17T15:19:53.146Z,70.22
2018-07-17T15:22:21.520Z,70.75
2018-07-17T15:24:49.594Z,70.33
2018-07-17T15:27:17.857Z,71.17
2018-07-17T15:29:46.241Z,70.46
2018-07-17T15:32:14.527Z,70.79
2018-07-17T15:34:42.797Z,69.85
2018-07-17T15:37:11.074Z,69.27
2018-07-17T15:39:39.248Z,69.39
2018-07-17T15:42:07.733Z,69.13
2018-07-17T15:44:35.901Z,68.40
2018-07-17T15:47:04.374Z,68.72
2018-07-17T15:49:32.704Z,68.84
2018-07-17T15:52:00.939Z,69.08
2018-07-17T15:54:29.311Z,67.93
2018-07-17T15:56:57.788Z,68.23
2018-07-17T15:59:26.176Z,67.49
2018-07-17T16:01:54.662Z,67.65
2018-07-17T16:04:22.888Z,66.63
2018-07-17T16:06:51.297Z,66.91
2018-07-17T16:09:20.389Z,65.91
2018-07-17T16:11:48.760Z,66.76
2018-07-17T16:14:17.533Z,67.03
2018-07-17T16:16:45.633Z,66.98
2018-07-17T16:19:13.793Z,67.08
2018-07-17T16:21:42.180Z,67.38
2018-07-17T16:24:10.457Z,67.66
2018-07-17T16:26:38.480Z,67.88
2018-07-17T16:29:07.000Z,68.30
2018-07-17T16:31:35.377Z,68.57
2018-07-17T16:34:03.639Z,68.60
2018-07-17T16:36:32.035Z,68.17
2018-07-17T16:39:00.409Z,68.33
2018-07-17T16:41:28.668Z,69.58
2018-07-17T16:43:56.961Z,69.08
2018-07-17T16:46:25.241Z,69.94
2018-07-17T16:48:53.312Z,68.88
2018-07-17T16:51:21.589Z,68.87
2018-07-17T16:53:49.865Z,69.29
2018-07-17T16:56:18.142Z,68.67
2018-07-17T16:58:46.408Z,69.04
2018-07-17T17:01:14.762Z,68.34
2018-07-17T17:03:43.056Z,69.49
2018-07-17T17:06:11.342Z,69.30
2018-07-17T17:08:39.615Z,69.52
2018-07-17T17:11:07.493Z,69.41
2018-07-17T17:13:35.645Z,68.34
2018-07-17T17:16:04.038Z,68.74
2018-07-17T17:18:31.872Z,68.68
2018-07-17T17:21:00.330Z,67.63
2018-07-17T17:23:28.556Z,67.11
2018-07-17T17:25:56.826Z,66.66
2018-07-17T17:28:24.997Z,66.15
2018-07-17T17:30:53.485Z,65.42
2018-07-17T17:33:21.649Z,66.32
2018-07-17T17:35:50.021Z,66.07
2018-07-17T17:38:18.414Z,65.59
2018-07-17T17:40:46.894Z,65.68
2018-07-17T17:43:15.166Z,65.75
2018-07-17T17:45:43.438Z,65.52
2018-07-17T17:48:11.723Z,65.74
2018-07-17T17:50:39.981Z,66.70
2018-07-17T17:53:08.366Z,66.67
2018-07-17T17:55:36.749Z,65.67
2018-07-17T17:58:05.222Z,66.07
2018-07-17T18:00:33.407Z,65.40
2018-07-17T18:03:01.773Z,65.14
2018-07-17T18:05:29.936Z,66.30
2018-07-17T18:07:58.434Z,65.63
2018-07-17T18:10:26.610Z,65.85
2018-07-17T18:12:54.986Z,66.00
2018-07-17T18:15:23.255Z,66.06
2018-07-17T18:17:51.538Z,66.76
2018-07-17T18:20:19.474Z,67.26
2018-07-17T18:22:47.540Z,66.10
2018-07-17T18:25:15.944Z,66.60
2018-07-17T18:27:43.877Z,66.06
2018-07-17T18:30:12.292Z,66.61
2018-07-17T18:32:40.573Z,66.36
2018-07-17T18:35:08.957Z,67.01
2018-07-17T18:37:37.317Z,66.54
2018-07-17T18:40:05.778Z,67.58
2018-07-17T18:42:34.085Z,66.90
2018-07-17T18:45:02.502Z,66.84
2018-07-17T18:47:31.664Z,66.61
2018-07-17T18:52:29.274Z,67.20
2018-07-17T18:54:57.439Z,66.08
2018-07-17T18:57:25.899Z,65.59
2018-07-17T18:59:54.049Z,65.33
2018-07-17T19:02:23.280Z,66.33
2018-07-17T19:04:51.532Z,66.79
2018-07-17T19:07:19.805Z,66.94
2018-07-17T19:09:48.295Z,66.54
2018-07-17T19:12:16.571Z,66.85
2018-07-17T19:14:44.451Z,66.26
2018-07-17T19:17:12.805Z,66.58
2018-07-17T19:19:41.064Z,66.95
2018-07-17T19:22:09.463Z,67.19
2018-07-17T19:24:37.547Z,67.16
2018-07-17T19:27:05.942Z,66.99
2018-07-17T19:29:34.069Z,66.76
2018-07-17T19:32:02.588Z,66.81
2018-07-17T19:34:31.774Z,66.83
2018-07-17T19:37:00.401Z,67.00
2018-07-17T19:39:28.649Z,67.30
2018-07-17T19:41:56.885Z,67.41
2018-07-17T19:44:25.265Z,66.88
2018-07-17T19:46:53.541Z,67.31
2018-07-17T19:49:21.921Z,67.69
2018-07-17T19:51:50.203Z,67.46
2018-07-17T19:54:18.374Z,67.07
2018-07-17T19:56:46.641Z,66.93
2018-07-17T19:59:14.918Z,66.82
2018-07-17T20:01:43.397Z,66.58
2018-07-17T20:04:11.674Z,66.44
2018-07-17T20:06:40.062Z,66.72
2018-07-17T20:09:08.786Z,66.74
2018-07-17T20:11:37.123Z,65.98
2018-07-17T20:14:05.481Z,67.20
2018-07-17T20:16:33.776Z,67.35
2018-07-17T20:19:02.050Z,67.58
2018-07-17T20:21:30.317Z,66.90
2018-07-17T20:23:58.594Z,66.50
2018-07-17T20:26:26.977Z,66.96
2018-07-17T20:28:55.154Z,67.18
2018-07-17T20:31:23.432Z,67.75
2018-07-17T20:33:51.853Z,68.71
2018-07-17T20:36:19.929Z,68.98
2018-07-17T20:38:48.359Z,68.05
2018-07-17T20:41:16.738Z,68.51
2018-07-17T20:43:45.101Z,68.33
2018-07-17T20:46:13.390Z,69.32
2018-07-17T20:48:41.248Z,68.43
2018-07-17T20:51:10.085Z,68.47
2018-07-17T20:53:38.205Z,68.38
2018-07-17T20:56:06.601Z,68.13
2018-07-17T20:58:34.771Z,68.13
2018-07-17T21:01:03.044Z,68.26
2018-07-17T21:03:31.222Z,68.44
2018-07-17T21:05:59.694Z,67.79
2018-07-17T21:08:27.865Z,68.40
2018-07-17T21:10:56.045Z,68.61
2018-07-17T21:13:24.113Z,68.87
2018-07-17T21:15:52.491Z,69.61
2018-07-17T21:18:20.780Z,70.62
2018-07-17T21:20:48.933Z,71.23
2018-07-17T21:23:17.218Z,71.41
2018-07-17T21:25:45.486Z,71.38
2018-07-17T21:28:13.870Z,71.65
2018-07-17T21:30:42.243Z,72.00
2018-07-17T21:33:10.519Z,71.46
2018-07-17T21:35:38.694Z,71.74
2018-07-17T21:38:06.966Z,72.02
2018-07-17T21:40:35.245Z,72.73
2018-07-17T21:43:03.413Z,72.85
2018-07-17T21:45:31.794Z,72.07
2018-07-17T21:47:59.966Z,73.00
2018-07-17T21:50:28.448Z,73.09
2018-07-17T21:52:56.624Z,73.48
2018-07-17T21:55:25.025Z,72.74
2018-07-17T21:57:53.275Z,73.35
2018-07-17T22:00:21.554Z,72.52
2018-07-17T22:02:50.022Z,72.61
2018-07-17T22:05:18.309Z,72.41
2018-07-17T22:07:46.786Z,71.87
2018-07-17T22:10:15.155Z,72.71
2018-07-17T22:12:43.538Z,72.51
2018-07-17T22:15:11.870Z,72.54
2018-07-17T22:17:40.185Z,71.92
2018-07-17T22:20:08.430Z,72.22
2018-07-17T22:22:36.845Z,71.98
2018-07-17T22:25:05.026Z,71.85
2018-07-17T22:27:33.502Z,71.67
2018-07-17T22:30:01.779Z,71.35
2018-07-17T22:32:30.053Z,72.01
2018-07-17T22:34:58.234Z,72.81
2018-07-17T22:37:26.604Z,72.69
2018-07-17T22:39:54.879Z,72.22
2018-07-17T22:42:23.249Z,72.37
2018-07-17T22:44:51.439Z,71.77
2018-07-17T22:47:19.695Z,71.58
2018-07-17T22:49:47.778Z,71.89
2018-07-17T22:52:16.019Z,71.91
2018-07-17T22:54:44.330Z,71.24
2018-07-17T22:57:12.383Z,71.69
2018-07-17T22:59:40.670Z,71.87
2018-07-17T23:02:09.091Z,71.87
2018-07-17T23:04:36.922Z,71.50
2018-07-17T23:07:05.191Z,71.14
2018-07-17T23:09:33.466Z,70.66
2018-07-17T23:12:01.816Z,70.84
2018-07-17T23:14:30.121Z,70.18
2018-07-17T23:16:58.386Z,69.82
2018-07-17T23:19:26.342Z,69.74
2018-07-17T23:21:54.530Z,69.40
2018-07-17T23:24:22.705Z,69.11
2018-07-17T23:26:50.983Z,68.21
2018-07-17T23:29:19.367Z,68.77
2018-07-17T23:31:47.629Z,70.68
2018-07-17T23:34:15.924Z,70.75
2018-07-17T23:36:44.202Z,71.11
2018-07-17T23:39:12.462Z,71.92
2018-07-17T23:41:41.003Z,71.75
2018-07-17T23:44:09.322Z,72.48
2018-07-17T23:46:37.809Z,72.91
2018-07-17T23:49:06.070Z,72.71
2018-07-17T23:51:34.446Z,73.06
2018-07-17T23:54:02.739Z,72.13
2018-07-17T23:56:31.098Z,72.35
2018-07-17T23:58:59.490Z,71.85
